Thorne, Nevada
Current Conditions -  °F | °C
As of 11:56 PM on Tuesday 21 Oct 2014 (Local Time) from KNFL Reporting Station
Clear Clear  
Wind Chill: 42°   Ceiling: Unl
Heat Index: 42°   Visibility: 10mi
Dew Point: 24°   Wind: 3mph
Humidity: 49%   Direction: 220°SW
Pressure: 30.09"   Gusts: NA
Location:  38.6331°N, 118.656°W
Report Text: KNFL 220656Z AUTO 22003KT 10SM CLR 06/M04 A3009 RMK AO2 SLP156 T00561044
Loading
Personal Weather Stations






























Interactive Weather Map
Tropical Storm Tracking
New forecast layout! Learn more

10-Day Weather Forecast

Advertisements
Track Severe Weather on mobile